createdAt,value
2022-11-02T00:02:17.324Z,100.00
2022-11-02T00:04:44.846Z,100.00
2022-11-02T00:07:12.249Z,100.00
2022-11-02T00:09:39.780Z,100.00
2022-11-02T00:12:07.563Z,100.00
2022-11-02T00:14:35.111Z,100.00
2022-11-02T00:17:02.588Z,100.00
2022-11-02T00:19:30.609Z,100.00
2022-11-02T00:21:59.001Z,100.00
2022-11-02T00:24:26.489Z,100.00
2022-11-02T00:26:55.155Z,100.00
2022-11-02T00:29:24.420Z,100.00
2022-11-02T00:31:51.936Z,100.00
2022-11-02T00:34:19.624Z,100.00
2022-11-02T00:36:50.598Z,100.00
2022-11-02T00:39:20.609Z,100.00
2022-11-02T00:41:48.115Z,100.00
2022-11-02T00:44:15.597Z,100.00
2022-11-02T00:46:43.016Z,100.00
2022-11-02T00:49:10.467Z,100.00
2022-11-02T00:51:37.979Z,100.00
2022-11-02T00:54:05.587Z,100.00
2022-11-02T00:56:34.334Z,100.00
2022-11-02T00:59:04.394Z,100.00
2022-11-02T01:01:32.729Z,100.00
2022-11-02T01:04:00.347Z,100.00
2022-11-02T01:06:27.786Z,100.00
2022-11-02T01:08:55.251Z,100.00
2022-11-02T01:11:24.612Z,100.00
2022-11-02T01:13:52.472Z,100.00
2022-11-02T01:16:20.798Z,100.00
2022-11-02T01:18:55.158Z,100.00
2022-11-02T01:21:23.307Z,100.00
2022-11-02T01:23:50.907Z,100.00
2022-11-02T01:26:18.674Z,100.00
2022-11-02T01:28:46.150Z,100.00
2022-11-02T01:31:13.810Z,100.00
2022-11-02T01:33:45.927Z,100.00
2022-11-02T01:36:15.418Z,100.00
2022-11-02T01:38:42.973Z,100.00
2022-11-02T01:41:12.796Z,100.00
2022-11-02T01:43:49.319Z,100.00
2022-11-02T01:46:21.103Z,100.00
2022-11-02T01:48:55.904Z,100.00
2022-11-02T01:51:29.596Z,100.00
2022-11-02T01:54:02.869Z,100.00
2022-11-02T01:56:33.176Z,100.00
2022-11-02T01:59:06.746Z,100.00
2022-11-02T02:01:34.522Z,100.00
2022-11-02T02:04:02.944Z,100.00
2022-11-02T02:06:35.991Z,100.00
2022-11-02T02:09:07.496Z,100.00
2022-11-02T02:11:38.483Z,100.00
2022-11-02T02:14:24.896Z,100.00
2022-11-02T02:17:20.109Z,100.00
2022-11-02T02:20:02.289Z,100.00
2022-11-02T02:22:43.410Z,100.00
2022-11-02T02:25:23.288Z,100.00
2022-11-02T02:28:19.951Z,100.00
2022-11-02T02:30:57.872Z,100.00
2022-11-02T02:33:31.088Z,100.00
2022-11-02T02:36:16.147Z,100.00
2022-11-02T02:38:49.628Z,100.00
2022-11-02T02:41:47.126Z,100.00
2022-11-02T02:44:22.386Z,100.00
2022-11-02T02:47:01.646Z,100.00
2022-11-02T02:49:37.416Z,100.00
2022-11-02T02:52:06.069Z,100.00
2022-11-02T02:54:41.916Z,100.00
2022-11-02T02:57:13.900Z,100.00
2022-11-02T02:59:43.427Z,100.00
2022-11-02T03:02:36.364Z,100.00
2022-11-02T03:05:23.518Z,100.00
2022-11-02T03:07:51.563Z,100.00
2022-11-02T03:10:26.459Z,100.00
2022-11-02T03:13:04.777Z,100.00
2022-11-02T03:15:40.937Z,100.00
2022-11-02T03:18:28.644Z,100.00
2022-11-02T03:21:26.863Z,100.00
2022-11-02T03:24:06.153Z,100.00
2022-11-02T03:26:53.408Z,100.00
2022-11-02T03:29:29.108Z,100.00
2022-11-02T03:32:01.010Z,100.00
2022-11-02T03:34:35.468Z,100.00
2022-11-02T03:37:24.599Z,100.00
2022-11-02T03:40:03.598Z,100.00
2022-11-02T03:42:33.937Z,100.00
2022-11-02T03:45:09.475Z,100.00
2022-11-02T03:47:39.613Z,100.00
2022-11-02T03:50:13.968Z,100.00
2022-11-02T03:52:45.168Z,100.00
2022-11-02T03:55:22.845Z,100.00
2022-11-02T03:57:52.044Z,100.00
2022-11-02T04:00:26.487Z,100.00
2022-11-02T04:03:04.301Z,100.00
2022-11-02T04:05:39.204Z,100.00
2022-11-02T04:08:23.456Z,100.00
2022-11-02T04:11:13.272Z,100.00
2022-11-02T04:14:02.279Z,100.00
2022-11-02T04:16:34.804Z,100.00
2022-11-02T04:19:24.418Z,100.00
2022-11-02T04:22:12.509Z,100.00
2022-11-02T04:25:01.543Z,100.00
2022-11-02T04:27:30.168Z,100.00
2022-11-02T04:29:58.557Z,100.00
2022-11-02T04:32:47.395Z,100.00
2022-11-02T04:35:17.925Z,100.00
2022-11-02T04:38:05.465Z,100.00
2022-11-02T04:40:37.175Z,100.00
2022-11-02T04:43:05.981Z,100.00
2022-11-02T04:45:34.955Z,100.00
2022-11-02T04:48:05.819Z,100.00
2022-11-02T04:50:36.177Z,100.00
2022-11-02T04:53:06.067Z,100.00
2022-11-02T04:55:35.008Z,100.00
2022-11-02T04:58:02.733Z,100.00
2022-11-02T05:00:30.761Z,100.00
2022-11-02T05:02:58.888Z,100.00
2022-11-02T05:05:27.273Z,100.00
2022-11-02T05:07:58.600Z,100.00
2022-11-02T05:10:26.590Z,100.00
2022-11-02T05:12:59.002Z,100.00
2022-11-02T05:15:30.368Z,100.00
2022-11-02T05:17:59.575Z,100.00
2022-11-02T05:20:29.887Z,100.00
2022-11-02T05:22:58.438Z,100.00
2022-11-02T05:25:26.167Z,100.00
2022-11-02T05:27:53.658Z,100.00
2022-11-02T05:30:21.149Z,100.00
2022-11-02T05:32:49.068Z,100.00
2022-11-02T05:35:16.673Z,100.00
2022-11-02T05:37:45.407Z,100.00
2022-11-02T05:40:14.068Z,100.00
2022-11-02T05:42:41.613Z,100.00
2022-11-02T05:45:10.002Z,100.00
2022-11-02T05:47:37.488Z,100.00
2022-11-02T05:50:05.357Z,100.00
2022-11-02T05:52:32.780Z,100.00
2022-11-02T05:55:00.128Z,100.00
2022-11-02T05:57:27.563Z,100.00
2022-11-02T05:59:55.041Z,100.00
2022-11-02T06:02:24.763Z,100.00
2022-11-02T06:04:53.158Z,100.00
2022-11-02T06:07:20.683Z,100.00
2022-11-02T06:09:48.188Z,100.00
2022-11-02T06:12:15.603Z,100.00
2022-11-02T06:14:43.110Z,100.00
2022-11-02T06:17:10.590Z,100.00
2022-11-02T06:19:38.082Z,100.00
2022-11-02T06:22:05.588Z,100.00
2022-11-02T06:24:33.056Z,100.00
2022-11-02T06:27:00.537Z,100.00
2022-11-02T06:29:28.018Z,100.00
2022-11-02T06:31:55.404Z,100.00
2022-11-02T06:34:22.913Z,100.00
2022-11-02T06:36:50.550Z,100.00
2022-11-02T06:39:17.874Z,100.00
2022-11-02T06:41:45.328Z,100.00
2022-11-02T06:44:12.797Z,100.00
2022-11-02T06:46:40.207Z,100.00
2022-11-02T06:49:07.760Z,100.00
2022-11-02T06:51:35.217Z,100.00
2022-11-02T06:54:08.299Z,100.00
2022-11-02T06:56:36.293Z,100.00
2022-11-02T06:59:03.738Z,100.00
2022-11-02T07:01:31.318Z,100.00
2022-11-02T07:03:58.876Z,100.00
2022-11-02T07:06:26.383Z,100.00
2022-11-02T07:08:55.118Z,100.00
2022-11-02T07:11:23.453Z,100.00
2022-11-02T07:13:50.856Z,100.00
2022-11-02T07:16:18.426Z,100.00
2022-11-02T07:18:45.904Z,100.00
2022-11-02T07:21:13.448Z,100.00
2022-11-02T07:23:40.910Z,100.00
2022-11-02T07:26:08.361Z,100.00
2022-11-02T07:28:38.386Z,100.00
2022-11-02T07:31:06.208Z,100.00
2022-11-02T07:33:33.634Z,100.00
2022-11-02T07:36:03.595Z,100.00
2022-11-02T07:38:31.433Z,100.00
2022-11-02T07:40:59.137Z,100.00
2022-11-02T07:43:26.618Z,100.00
2022-11-02T07:46:06.198Z,100.00
2022-11-02T07:48:33.738Z,100.00
2022-11-02T07:51:01.173Z,100.00
2022-11-02T07:53:28.637Z,99.32
2022-11-02T07:55:56.284Z,96.14
2022-11-02T07:58:23.813Z,97.51
2022-11-02T08:00:53.844Z,95.26
2022-11-02T08:03:24.993Z,91.24
2022-11-02T08:05:52.556Z,87.55
2022-11-02T08:08:22.159Z,89.42
2022-11-02T08:10:52.286Z,89.90
2022-11-02T08:13:23.566Z,89.13
2022-11-02T08:15:52.416Z,90.17
2022-11-02T08:18:25.063Z,92.20
2022-11-02T08:20:56.374Z,96.76
2022-11-02T08:23:24.298Z,94.85
2022-11-02T08:25:53.388Z,94.90
2022-11-02T08:28:31.675Z,95.83
2022-11-02T08:30:59.628Z,99.89
2022-11-02T08:33:27.090Z,98.15
2022-11-02T08:35:54.619Z,96.49
2022-11-02T08:38:24.947Z,98.98
2022-11-02T08:40:52.558Z,100.00
2022-11-02T08:43:19.929Z,100.00
2022-11-02T08:46:13.880Z,100.00
2022-11-02T08:48:35.128Z,100.00
2022-11-02T08:51:03.014Z,100.00
2022-11-02T08:53:30.407Z,100.00
2022-11-02T08:55:59.202Z,100.00
2022-11-02T08:58:26.756Z,100.00
2022-11-02T09:00:54.674Z,100.00
2022-11-02T09:03:27.314Z,100.00
2022-11-02T09:06:00.389Z,99.04
2022-11-02T09:08:29.169Z,100.00
2022-11-02T09:11:03.160Z,100.00
2022-11-02T09:13:30.704Z,97.93
2022-11-02T09:15:59.675Z,97.84
2022-11-02T09:18:27.545Z,96.13
2022-11-02T09:20:55.159Z,96.70
2022-11-02T09:23:23.100Z,96.22
2022-11-02T09:25:50.902Z,97.39
2022-11-02T09:28:18.547Z,94.54
2022-11-02T09:30:46.016Z,95.21
2022-11-02T09:33:13.839Z,96.37
2022-11-02T09:35:44.877Z,100.00
2022-11-02T09:38:12.809Z,100.00
2022-11-02T09:40:44.744Z,100.00
2022-11-02T09:43:32.411Z,100.00
2022-11-02T09:46:28.697Z,100.00
2022-11-02T09:49:06.448Z,100.00
2022-11-02T09:51:37.509Z,100.00
2022-11-02T09:54:39.385Z,100.00
2022-11-02T09:57:12.028Z,100.00
2022-11-02T09:59:41.483Z,100.00
2022-11-02T10:02:39.315Z,100.00
2022-11-02T10:06:04.048Z,100.00
2022-11-02T10:08:56.387Z,100.00
2022-11-02T10:11:42.358Z,100.00
2022-11-02T10:14:15.935Z,100.00
2022-11-02T10:16:58.158Z,100.00
2022-11-02T10:19:30.260Z,100.00
2022-11-02T10:21:58.713Z,100.00
2022-11-02T10:24:45.435Z,100.00
2022-11-02T10:27:37.274Z,100.00
2022-11-02T10:30:07.022Z,100.00
2022-11-02T10:32:36.742Z,100.00
2022-11-02T10:35:31.282Z,100.00
2022-11-02T10:38:23.038Z,100.00
2022-11-02T10:41:06.767Z,100.00
2022-11-02T10:43:52.215Z,100.00
2022-11-02T10:46:33.862Z,100.00
2022-11-02T10:49:06.637Z,100.00
2022-11-02T10:51:34.177Z,100.00
2022-11-02T10:54:01.712Z,100.00
2022-11-02T10:56:33.555Z,100.00
2022-11-02T10:59:14.119Z,100.00
2022-11-02T11:02:07.108Z,100.00
2022-11-02T11:04:35.043Z,100.00
2022-11-02T11:07:08.054Z,100.00
2022-11-02T11:09:55.268Z,99.63
2022-11-02T11:12:34.334Z,98.11
2022-11-02T11:20:41.219Z,99.46
2022-11-02T11:23:15.752Z,97.71
2022-11-02T11:25:53.499Z,95.61
2022-11-02T11:28:22.629Z,94.80
2022-11-02T11:31:14.639Z,95.63
2022-11-02T11:33:56.458Z,99.55
2022-11-02T11:36:35.877Z,100.00
2022-11-02T11:39:08.103Z,100.00
2022-11-02T11:41:41.338Z,100.00
2022-11-02T11:44:14.758Z,100.00
2022-11-02T11:46:49.336Z,100.00
2022-11-02T11:49:35.920Z,100.00
2022-11-02T11:52:20.054Z,100.00
2022-11-02T11:58:59.821Z,100.00
2022-11-02T12:01:27.377Z,100.00
2022-11-02T12:04:02.510Z,97.34
2022-11-02T12:06:57.668Z,99.50
2022-11-02T12:09:36.889Z,99.10
2022-11-02T12:12:23.110Z,100.00
2022-11-02T12:15:14.100Z,100.00
2022-11-02T12:18:19.325Z,100.00
2022-11-02T12:21:22.815Z,100.00
2022-11-02T12:24:01.646Z,100.00
2022-11-02T12:26:42.530Z,100.00
2022-11-02T12:29:40.959Z,100.00
2022-11-02T12:32:18.389Z,100.00
2022-11-02T12:34:57.800Z,100.00
2022-11-02T12:37:53.807Z,100.00
2022-11-02T12:40:30.286Z,100.00
2022-11-02T12:43:15.748Z,100.00
2022-11-02T12:46:13.841Z,100.00
2022-11-02T12:49:02.529Z,100.00
2022-11-02T12:51:37.509Z,100.00
2022-11-02T12:54:11.474Z,100.00
2022-11-02T12:56:49.389Z,100.00
2022-11-02T12:59:30.836Z,100.00
2022-11-02T13:02:11.472Z,100.00
2022-11-02T13:04:44.619Z,100.00
2022-11-02T13:07:15.521Z,100.00
2022-11-02T13:09:52.498Z,100.00
2022-11-02T13:12:23.867Z,100.00
2022-11-02T13:14:57.789Z,100.00
2022-11-02T13:17:42.118Z,100.00
2022-11-02T13:20:12.998Z,100.00
2022-11-02T13:22:43.302Z,100.00
2022-11-02T13:25:13.955Z,100.00
2022-11-02T13:27:50.659Z,97.62
2022-11-02T13:30:18.963Z,95.63
2022-11-02T13:33:10.210Z,93.58
2022-11-02T13:35:43.595Z,91.40
2022-11-02T13:38:29.682Z,90.79
2022-11-02T13:41:24.678Z,91.40
2022-11-02T13:44:27.547Z,88.16
2022-11-02T13:47:09.310Z,91.32
2022-11-02T13:49:41.460Z,91.28
2022-11-02T13:52:15.049Z,92.22
2022-11-02T13:57:36.705Z,92.31
2022-11-02T14:00:08.409Z,94.86
2022-11-02T14:02:42.629Z,90.91
2022-11-02T14:05:41.606Z,91.25
2022-11-02T14:08:17.649Z,92.59
2022-11-02T14:11:03.506Z,92.73
2022-11-02T14:13:54.413Z,93.18
2022-11-02T14:16:40.735Z,91.72
2022-11-02T14:19:20.962Z,94.70
2022-11-02T14:21:51.362Z,95.42
2022-11-02T14:24:34.588Z,96.98
2022-11-02T14:27:12.214Z,99.25
2022-11-02T14:29:42.707Z,100.00
2022-11-02T14:32:26.826Z,100.00
2022-11-02T14:35:22.421Z,100.00
2022-11-02T14:38:17.688Z,100.00
2022-11-02T14:41:16.695Z,100.00
2022-11-02T14:43:53.163Z,100.00
2022-11-02T14:46:38.627Z,100.00
2022-11-02T14:49:15.848Z,100.00
2022-11-02T14:51:45.811Z,100.00
2022-11-02T14:54:19.048Z,100.00
2022-11-02T14:56:49.332Z,100.00
2022-11-02T14:59:25.619Z,100.00
2022-11-02T15:02:22.073Z,100.00
2022-11-02T15:05:01.758Z,100.00
2022-11-02T15:08:09.127Z,100.00
2022-11-02T15:10:40.957Z,100.00
2022-11-02T15:13:20.851Z,100.00
2022-11-02T15:15:51.209Z,100.00
2022-11-02T15:18:30.406Z,100.00
2022-11-02T15:21:13.052Z,100.00
2022-11-02T15:23:46.968Z,100.00
2022-11-02T15:26:20.049Z,100.00
2022-11-02T15:28:51.040Z,100.00
2022-11-02T15:31:25.914Z,100.00
2022-11-02T15:33:58.165Z,100.00
2022-11-02T15:36:31.594Z,100.00
2022-11-02T15:39:03.447Z,100.00
2022-11-02T15:41:39.871Z,100.00
2022-11-02T15:44:44.961Z,100.00
2022-11-02T15:47:29.471Z,100.00
2022-11-02T15:50:15.349Z,100.00
2022-11-02T15:53:08.712Z,100.00
2022-11-02T15:55:47.620Z,100.00
2022-11-02T15:58:33.499Z,100.00
2022-11-02T16:01:16.269Z,100.00
2022-11-02T16:03:46.724Z,100.00
2022-11-02T16:06:15.058Z,100.00
2022-11-02T16:08:44.260Z,100.00
2022-11-02T16:11:17.613Z,100.00
2022-11-02T16:14:08.116Z,100.00
2022-11-02T16:16:46.928Z,100.00
2022-11-02T16:19:21.800Z,100.00
2022-11-02T16:21:50.338Z,100.00
2022-11-02T16:24:19.248Z,100.00
2022-11-02T16:26:48.698Z,100.00
2022-11-02T16:29:27.789Z,100.00
2022-11-02T16:31:55.509Z,100.00
2022-11-02T16:34:29.818Z,100.00
2022-11-02T16:36:58.348Z,100.00
2022-11-02T16:39:30.434Z,100.00
2022-11-02T16:41:59.504Z,100.00
2022-11-02T16:44:32.305Z,100.00
2022-11-02T16:47:16.260Z,100.00
2022-11-02T16:49:49.711Z,100.00
2022-11-02T16:52:17.190Z,100.00
2022-11-02T16:54:45.337Z,100.00
2022-11-02T16:57:12.796Z,100.00
2022-11-02T17:00:11.552Z,100.00
2022-11-02T17:02:41.617Z,100.00
2022-11-02T17:05:22.748Z,100.00
2022-11-02T17:08:04.801Z,100.00
2022-11-02T17:10:36.343Z,100.00
2022-11-02T17:13:07.283Z,100.00
2022-11-02T17:15:37.535Z,100.00
2022-11-02T17:18:08.250Z,100.00
2022-11-02T17:20:38.517Z,100.00
2022-11-02T17:23:09.168Z,100.00
2022-11-02T17:25:39.383Z,100.00
2022-11-02T17:28:35.019Z,100.00
2022-11-02T17:31:02.671Z,100.00
2022-11-02T17:33:32.924Z,100.00
2022-11-02T17:36:06.818Z,100.00
2022-11-02T17:38:34.298Z,100.00
2022-11-02T17:41:02.175Z,100.00
2022-11-02T17:43:29.769Z,100.00
2022-11-02T17:46:00.968Z,100.00
2022-11-02T17:48:31.385Z,100.00
2022-11-02T17:51:02.227Z,100.00
2022-11-02T17:53:29.798Z,100.00
2022-11-02T17:55:57.630Z,100.00
2022-11-02T17:58:25.203Z,100.00
2022-11-02T18:00:54.742Z,100.00
2022-11-02T18:03:25.393Z,100.00
2022-11-02T18:05:59.799Z,100.00
2022-11-02T18:08:28.335Z,100.00
2022-11-02T18:10:55.899Z,100.00
2022-11-02T18:13:24.357Z,100.00
2022-11-02T18:15:51.830Z,100.00
2022-11-02T18:18:19.374Z,100.00
2022-11-02T18:20:46.868Z,100.00
2022-11-02T18:23:16.829Z,100.00
2022-11-02T18:25:44.423Z,100.00
2022-11-02T18:28:11.990Z,100.00
2022-11-02T18:30:42.980Z,100.00
2022-11-02T18:33:13.415Z,100.00
2022-11-02T18:35:43.103Z,100.00
2022-11-02T18:38:10.818Z,100.00
2022-11-02T18:40:38.392Z,100.00
2022-11-02T18:43:06.181Z,100.00
2022-11-02T18:45:33.775Z,100.00
2022-11-02T18:48:01.222Z,100.00
2022-11-02T18:50:28.768Z,100.00
2022-11-02T18:52:56.144Z,100.00
2022-11-02T18:55:23.800Z,100.00
2022-11-02T18:57:51.186Z,100.00
2022-11-02T19:00:19.107Z,100.00
2022-11-02T19:02:46.647Z,100.00
2022-11-02T19:05:32.780Z,100.00
2022-11-02T19:08:19.505Z,100.00
2022-11-02T19:10:48.375Z,100.00
2022-11-02T19:13:16.127Z,100.00
2022-11-02T19:15:43.676Z,100.00
2022-11-02T19:18:11.397Z,100.00
2022-11-02T19:20:38.900Z,100.00
2022-11-02T19:23:06.740Z,100.00
2022-11-02T19:25:34.458Z,100.00
2022-11-02T19:28:04.661Z,100.00
2022-11-02T19:30:32.508Z,100.00
2022-11-02T19:33:00.020Z,100.00
2022-11-02T19:35:27.499Z,100.00
2022-11-02T19:37:57.881Z,100.00
2022-11-02T19:40:25.509Z,100.00
2022-11-02T19:42:52.997Z,100.00
2022-11-02T19:45:20.558Z,100.00
2022-11-02T19:47:48.588Z,100.00
2022-11-02T19:50:16.277Z,100.00
2022-11-02T19:52:46.383Z,100.00
2022-11-02T19:55:13.959Z,100.00
2022-11-02T19:57:41.387Z,100.00
2022-11-02T20:00:09.608Z,100.00
2022-11-02T20:02:37.244Z,100.00
2022-11-02T20:05:05.175Z,100.00
2022-11-02T20:07:32.627Z,100.00
2022-11-02T20:10:00.137Z,100.00
2022-11-02T20:12:27.570Z,100.00
2022-11-02T20:14:55.068Z,100.00
2022-11-02T20:17:32.082Z,100.00
2022-11-02T20:20:02.896Z,100.00
2022-11-02T20:22:30.398Z,100.00
2022-11-02T20:24:58.109Z,100.00
2022-11-02T20:27:25.619Z,100.00
2022-11-02T20:29:53.166Z,100.00
2022-11-02T20:32:22.533Z,100.00
2022-11-02T20:34:50.168Z,100.00
2022-11-02T20:37:17.607Z,100.00
2022-11-02T20:39:45.055Z,100.00
2022-11-02T20:42:12.511Z,100.00
2022-11-02T20:44:40.008Z,100.00
2022-11-02T20:47:07.418Z,100.00
2022-11-02T20:49:49.875Z,100.00
2022-11-02T20:52:18.908Z,100.00
2022-11-02T20:54:46.388Z,100.00
2022-11-02T20:57:13.926Z,100.00
2022-11-02T20:59:41.519Z,100.00
2022-11-02T21:02:12.559Z,100.00
2022-11-02T21:04:42.542Z,100.00
2022-11-02T21:07:11.455Z,100.00
2022-11-02T21:09:39.670Z,100.00
2022-11-02T21:12:33.553Z,100.00
2022-11-02T21:15:03.969Z,100.00
2022-11-02T21:17:36.137Z,100.00
2022-11-02T21:22:57.891Z,100.00
2022-11-02T21:25:27.662Z,100.00
2022-11-02T21:27:55.981Z,100.00
2022-11-02T21:30:25.866Z,100.00
2022-11-02T21:32:54.541Z,100.00
2022-11-02T21:35:23.973Z,100.00
2022-11-02T21:37:56.701Z,100.00
2022-11-02T21:40:24.802Z,100.00
2022-11-02T21:42:52.563Z,100.00
2022-11-02T21:45:25.192Z,100.00
2022-11-02T21:47:53.834Z,100.00
2022-11-02T21:50:22.133Z,100.00
2022-11-02T21:52:49.981Z,100.00
2022-11-02T21:55:17.712Z,100.00
2022-11-02T21:57:45.331Z,100.00
2022-11-02T22:00:13.432Z,100.00
2022-11-02T22:02:41.222Z,100.00
2022-11-02T22:05:08.889Z,100.00
2022-11-02T22:07:56.487Z,100.00
2022-11-02T22:10:24.152Z,100.00
2022-11-02T22:13:10.397Z,100.00
2022-11-02T22:15:38.580Z,100.00
2022-11-02T22:18:06.233Z,100.00
2022-11-02T22:20:33.873Z,100.00
2022-11-02T22:23:01.321Z,100.00
2022-11-02T22:25:29.068Z,100.00
2022-11-02T22:27:56.540Z,100.00
2022-11-02T22:30:24.738Z,100.00
2022-11-02T22:32:52.191Z,100.00
2022-11-02T22:35:19.790Z,100.00
2022-11-02T22:38:06.018Z,100.00
2022-11-02T22:40:33.601Z,100.00
2022-11-02T22:43:01.122Z,100.00
2022-11-02T22:45:28.611Z,100.00
2022-11-02T22:47:56.100Z,100.00
2022-11-02T22:50:26.739Z,100.00
2022-11-02T22:52:55.471Z,100.00
2022-11-02T22:55:22.941Z,100.00
2022-11-02T22:57:58.777Z,100.00
2022-11-02T23:00:27.542Z,100.00
2022-11-02T23:02:55.037Z,100.00
2022-11-02T23:05:22.528Z,100.00
2022-11-02T23:07:50.013Z,100.00
2022-11-02T23:10:36.280Z,100.00
2022-11-02T23:13:04.114Z,100.00
2022-11-02T23:15:31.987Z,100.00
2022-11-02T23:17:59.962Z,100.00
2022-11-02T23:20:27.482Z,100.00
2022-11-02T23:23:17.111Z,100.00
2022-11-02T23:25:44.790Z,100.00
2022-11-02T23:28:30.785Z,100.00
2022-11-02T23:31:17.107Z,100.00
2022-11-02T23:33:44.631Z,100.00
2022-11-02T23:36:13.324Z,100.00
2022-11-02T23:39:01.891Z,100.00
2022-11-02T23:41:31.364Z,100.00
2022-11-02T23:44:14.877Z,100.00
2022-11-02T23:46:44.550Z,100.00
2022-11-02T23:49:13.369Z,100.00
2022-11-02T23:51:59.590Z,100.00
2022-11-02T23:54:45.819Z,100.00
2022-11-02T23:57:13.721Z,100.00
2022-11-02T23:59:41.342Z,100.00
